sensor_id;sensor_type;location;lat;lon;timestamp;temperature;humidity
52879;DHT22;38747;53.140;6.498;2023-03-22T00:00:35;9.90;99.90
52879;DHT22;38747;53.140;6.498;2023-03-22T00:03:02;9.90;99.90
52879;DHT22;38747;53.140;6.498;2023-03-22T00:05:28;9.80;99.90
52879;DHT22;38747;53.140;6.498;2023-03-22T00:07:57;9.80;99.90
52879;DHT22;38747;53.140;6.498;2023-03-22T00:10:23;9.90;99.90
52879;DHT22;38747;53.140;6.498;2023-03-22T00:12:51;9.80;99.90
52879;DHT22;38747;53.140;6.498;2023-03-22T00:15:17;9.80;99.90
52879;DHT22;38747;53.140;6.498;2023-03-22T00:17:42;9.80;99.90
52879;DHT22;38747;53.140;6.498;2023-03-22T00:20:10;9.80;99.90
52879;DHT22;38747;53.140;6.498;2023-03-22T00:22:37;9.70;99.90
52879;DHT22;38747;53.140;6.498;2023-03-22T00:25:03;9.70;99.90
52879;DHT22;38747;53.140;6.498;2023-03-22T00:27:29;9.60;99.90
52879;DHT22;38747;53.140;6.498;2023-03-22T00:29:55;9.60;99.90
52879;DHT22;38747;53.140;6.498;2023-03-22T00:32:21;9.60;99.90
52879;DHT22;38747;53.140;6.498;2023-03-22T00:34:46;9.60;99.90
52879;DHT22;38747;53.140;6.498;2023-03-22T00:37:12;9.60;99.90
52879;DHT22;38747;53.140;6.498;2023-03-22T00:39:38;9.60;99.90
52879;DHT22;38747;53.140;6.498;2023-03-22T00:42:04;9.50;99.90
52879;DHT22;38747;53.140;6.498;2023-03-22T00:44:30;9.50;99.90
52879;DHT22;38747;53.140;6.498;2023-03-22T00:46:57;9.50;99.90
52879;DHT22;38747;53.140;6.498;2023-03-22T00:49:22;9.50;99.90
52879;DHT22;38747;53.140;6.498;2023-03-22T00:51:50;9.50;99.90
52879;DHT22;38747;53.140;6.498;2023-03-22T00:54:16;9.50;99.90
52879;DHT22;38747;53.140;6.498;2023-03-22T00:56:42;9.50;99.90
52879;DHT22;38747;53.140;6.498;2023-03-22T00:59:11;9.40;99.90
52879;DHT22;38747;53.140;6.498;2023-03-22T01:01:37;9.50;99.90
52879;DHT22;38747;53.140;6.498;2023-03-22T01:04:03;9.40;99.90
52879;DHT22;38747;53.140;6.498;2023-03-22T01:06:30;9.40;99.90
52879;DHT22;38747;53.140;6.498;2023-03-22T01:08:56;9.40;99.90
52879;DHT22;38747;53.140;6.498;2023-03-22T01:11:23;9.40;99.90
52879;DHT22;38747;53.140;6.498;2023-03-22T01:13:49;9.40;99.90
52879;DHT22;38747;53.140;6.498;2023-03-22T01:16:15;9.40;99.90
52879;DHT22;38747;53.140;6.498;2023-03-22T01:18:41;9.40;99.90
52879;DHT22;38747;53.140;6.498;2023-03-22T01:21:07;9.40;99.90
52879;DHT22;38747;53.140;6.498;2023-03-22T01:23:33;9.30;99.90
52879;DHT22;38747;53.140;6.498;2023-03-22T01:25:59;9.30;99.90
52879;DHT22;38747;53.140;6.498;2023-03-22T01:28:26;9.30;99.90
52879;DHT22;38747;53.140;6.498;2023-03-22T01:30:51;9.30;99.90
52879;DHT22;38747;53.140;6.498;2023-03-22T01:33:17;9.30;99.90
52879;DHT22;38747;53.140;6.498;2023-03-22T01:35:43;9.30;99.90
52879;DHT22;38747;53.140;6.498;2023-03-22T01:38:08;9.30;99.90
52879;DHT22;38747;53.140;6.498;2023-03-22T01:40:34;9.20;99.90
52879;DHT22;38747;53.140;6.498;2023-03-22T01:43:00;9.30;99.90
52879;DHT22;38747;53.140;6.498;2023-03-22T01:45:33;9.30;99.90
52879;DHT22;38747;53.140;6.498;2023-03-22T01:48:08;9.20;99.90
52879;DHT22;38747;53.140;6.498;2023-03-22T01:50:35;9.20;99.90
52879;DHT22;38747;53.140;6.498;2023-03-22T01:53:02;9.20;99.90
52879;DHT22;38747;53.140;6.498;2023-03-22T01:55:31;9.20;99.90
52879;DHT22;38747;53.140;6.498;2023-03-22T01:57:57;9.20;99.90
52879;DHT22;38747;53.140;6.498;2023-03-22T02:00:23;9.20;99.90
52879;DHT22;38747;53.140;6.498;2023-03-22T02:02:50;9.20;99.90
52879;DHT22;38747;53.140;6.498;2023-03-22T02:05:16;9.20;99.90
52879;DHT22;38747;53.140;6.498;2023-03-22T02:07:43;9.20;99.90
52879;DHT22;38747;53.140;6.498;2023-03-22T02:10:22;9.20;99.90
52879;DHT22;38747;53.140;6.498;2023-03-22T02:15:40;9.10;99.90
52879;DHT22;38747;53.140;6.498;2023-03-22T02:21:22;9.10;99.90
52879;DHT22;38747;53.140;6.498;2023-03-22T02:24:17;9.10;99.90
52879;DHT22;38747;53.140;6.498;2023-03-22T02:29:43;9.10;99.90
52879;DHT22;38747;53.140;6.498;2023-03-22T02:38:08;9.10;99.90
52879;DHT22;38747;53.140;6.498;2023-03-22T02:41:10;9.10;99.90
52879;DHT22;38747;53.140;6.498;2023-03-22T02:44:20;9.10;99.90
52879;DHT22;38747;53.140;6.498;2023-03-22T02:49:55;9.20;99.90
52879;DHT22;38747;53.140;6.498;2023-03-22T02:58:29;9.20;99.90
52879;DHT22;38747;53.140;6.498;2023-03-22T03:00:52;9.30;99.90
52879;DHT22;38747;53.140;6.498;2023-03-22T03:03:20;9.20;99.90
52879;DHT22;38747;53.140;6.498;2023-03-22T03:05:53;9.30;99.90
52879;DHT22;38747;53.140;6.498;2023-03-22T03:08:21;9.30;99.90
52879;DHT22;38747;53.140;6.498;2023-03-22T03:10:48;9.30;99.90
52879;DHT22;38747;53.140;6.498;2023-03-22T03:13:16;9.30;99.90
52879;DHT22;38747;53.140;6.498;2023-03-22T03:15:44;9.30;99.90
52879;DHT22;38747;53.140;6.498;2023-03-22T03:21:32;9.30;99.90
52879;DHT22;38747;53.140;6.498;2023-03-22T03:24:32;9.30;99.90
52879;DHT22;38747;53.140;6.498;2023-03-22T03:27:08;9.30;99.90
52879;DHT22;38747;53.140;6.498;2023-03-22T03:30:12;9.30;99.90
52879;DHT22;38747;53.140;6.498;2023-03-22T03:32:53;9.30;99.90
52879;DHT22;38747;53.140;6.498;2023-03-22T03:35:24;9.30;99.90
52879;DHT22;38747;53.140;6.498;2023-03-22T03:38:01;9.30;99.90
52879;DHT22;38747;53.140;6.498;2023-03-22T03:40:30;9.30;99.90
52879;DHT22;38747;53.140;6.498;2023-03-22T03:43:00;9.30;99.90
52879;DHT22;38747;53.140;6.498;2023-03-22T03:45:27;9.30;99.90
52879;DHT22;38747;53.140;6.498;2023-03-22T03:47:57;9.30;99.90
52879;DHT22;38747;53.140;6.498;2023-03-22T03:50:24;9.30;99.90
52879;DHT22;38747;53.140;6.498;2023-03-22T03:52:51;9.30;99.90
52879;DHT22;38747;53.140;6.498;2023-03-22T03:55:18;9.30;99.90
52879;DHT22;38747;53.140;6.498;2023-03-22T03:57:44;9.30;99.90
52879;DHT22;38747;53.140;6.498;2023-03-22T04:00:10;9.30;99.90
52879;DHT22;38747;53.140;6.498;2023-03-22T04:02:35;9.30;99.90
52879;DHT22;38747;53.140;6.498;2023-03-22T04:05:01;9.40;99.90
52879;DHT22;38747;53.140;6.498;2023-03-22T04:07:28;9.40;99.90
52879;DHT22;38747;53.140;6.498;2023-03-22T04:09:53;9.40;99.90
52879;DHT22;38747;53.140;6.498;2023-03-22T04:12:19;9.40;99.90
52879;DHT22;38747;53.140;6.498;2023-03-22T04:14:44;9.40;99.90
52879;DHT22;38747;53.140;6.498;2023-03-22T04:17:10;9.40;99.90
52879;DHT22;38747;53.140;6.498;2023-03-22T04:19:36;9.30;99.90
52879;DHT22;38747;53.140;6.498;2023-03-22T04:22:01;9.30;99.90
52879;DHT22;38747;53.140;6.498;2023-03-22T04:24:27;9.30;99.90
52879;DHT22;38747;53.140;6.498;2023-03-22T04:26:53;9.30;99.90
52879;DHT22;38747;53.140;6.498;2023-03-22T04:29:19;9.30;99.90
52879;DHT22;38747;53.140;6.498;2023-03-22T04:31:46;9.30;99.90
52879;DHT22;38747;53.140;6.498;2023-03-22T04:34:12;9.30;99.90
52879;DHT22;38747;53.140;6.498;2023-03-22T04:36:38;9.30;99.90
52879;DHT22;38747;53.140;6.498;2023-03-22T04:39:06;9.20;99.90
52879;DHT22;38747;53.140;6.498;2023-03-22T04:41:33;9.20;99.90
52879;DHT22;38747;53.140;6.498;2023-03-22T04:44:00;9.30;99.90
52879;DHT22;38747;53.140;6.498;2023-03-22T04:46:29;9.30;99.90
52879;DHT22;38747;53.140;6.498;2023-03-22T04:48:55;9.30;99.90
52879;DHT22;38747;53.140;6.498;2023-03-22T04:51:21;9.30;99.90
52879;DHT22;38747;53.140;6.498;2023-03-22T04:53:47;9.30;99.90
52879;DHT22;38747;53.140;6.498;2023-03-22T04:56:13;9.30;99.90
52879;DHT22;38747;53.140;6.498;2023-03-22T04:58:40;9.30;99.90
52879;DHT22;38747;53.140;6.498;2023-03-22T05:01:11;9.30;99.90
52879;DHT22;38747;53.140;6.498;2023-03-22T05:03:37;9.40;99.90
52879;DHT22;38747;53.140;6.498;2023-03-22T05:06:05;9.40;99.90
52879;DHT22;38747;53.140;6.498;2023-03-22T05:08:32;9.40;99.90
52879;DHT22;38747;53.140;6.498;2023-03-22T05:11:02;9.40;99.90
52879;DHT22;38747;53.140;6.498;2023-03-22T05:13:29;9.40;99.90
52879;DHT22;38747;53.140;6.498;2023-03-22T05:15:55;9.40;99.90
52879;DHT22;38747;53.140;6.498;2023-03-22T05:18:24;9.50;99.90
52879;DHT22;38747;53.140;6.498;2023-03-22T05:20:51;9.40;99.90
52879;DHT22;38747;53.140;6.498;2023-03-22T05:23:18;9.50;99.90
52879;DHT22;38747;53.140;6.498;2023-03-22T05:25:49;9.50;99.90
52879;DHT22;38747;53.140;6.498;2023-03-22T05:28:16;9.50;99.90
52879;DHT22;38747;53.140;6.498;2023-03-22T05:30:44;9.40;99.90
52879;DHT22;38747;53.140;6.498;2023-03-22T05:33:11;9.50;99.90
52879;DHT22;38747;53.140;6.498;2023-03-22T05:35:38;9.50;99.90
52879;DHT22;38747;53.140;6.498;2023-03-22T05:38:05;9.50;99.90
52879;DHT22;38747;53.140;6.498;2023-03-22T05:40:31;9.50;99.90
52879;DHT22;38747;53.140;6.498;2023-03-22T05:42:57;9.50;99.90
52879;DHT22;38747;53.140;6.498;2023-03-22T05:45:23;9.50;99.90
52879;DHT22;38747;53.140;6.498;2023-03-22T05:47:49;9.50;99.90
52879;DHT22;38747;53.140;6.498;2023-03-22T05:50:20;9.50;99.90
52879;DHT22;38747;53.140;6.498;2023-03-22T05:52:47;9.50;99.90
52879;DHT22;38747;53.140;6.498;2023-03-22T05:55:14;9.50;99.90
52879;DHT22;38747;53.140;6.498;2023-03-22T05:57:42;9.50;99.90
52879;DHT22;38747;53.140;6.498;2023-03-22T06:00:11;9.50;99.90
52879;DHT22;38747;53.140;6.498;2023-03-22T06:02:43;9.50;99.90
52879;DHT22;38747;53.140;6.498;2023-03-22T06:05:10;9.60;99.90
52879;DHT22;38747;53.140;6.498;2023-03-22T06:07:37;9.50;99.90
52879;DHT22;38747;53.140;6.498;2023-03-22T06:10:04;9.50;99.90
52879;DHT22;38747;53.140;6.498;2023-03-22T06:12:31;9.50;99.90
52879;DHT22;38747;53.140;6.498;2023-03-22T06:14:57;9.50;99.90
52879;DHT22;38747;53.140;6.498;2023-03-22T06:17:23;9.60;99.90
52879;DHT22;38747;53.140;6.498;2023-03-22T06:19:49;9.60;99.90
52879;DHT22;38747;53.140;6.498;2023-03-22T06:22:15;9.60;99.90
52879;DHT22;38747;53.140;6.498;2023-03-22T06:24:41;9.70;99.90
52879;DHT22;38747;53.140;6.498;2023-03-22T06:27:07;9.60;99.90
52879;DHT22;38747;53.140;6.498;2023-03-22T06:29:33;9.70;99.90
52879;DHT22;38747;53.140;6.498;2023-03-22T06:31:59;9.70;99.90
52879;DHT22;38747;53.140;6.498;2023-03-22T06:34:25;9.80;99.90
52879;DHT22;38747;53.140;6.498;2023-03-22T06:36:51;9.70;99.90
52879;DHT22;38747;53.140;6.498;2023-03-22T06:39:21;9.80;99.90
52879;DHT22;38747;53.140;6.498;2023-03-22T06:41:47;9.70;99.90
52879;DHT22;38747;53.140;6.498;2023-03-22T06:44:13;9.70;99.90
52879;DHT22;38747;53.140;6.498;2023-03-22T06:46:39;9.80;99.90
52879;DHT22;38747;53.140;6.498;2023-03-22T06:49:04;9.80;99.90
52879;DHT22;38747;53.140;6.498;2023-03-22T06:51:30;9.80;99.90
52879;DHT22;38747;53.140;6.498;2023-03-22T06:53:56;9.90;99.90
52879;DHT22;38747;53.140;6.498;2023-03-22T06:56:22;9.90;99.90
52879;DHT22;38747;53.140;6.498;2023-03-22T06:58:48;10.00;99.90
52879;DHT22;38747;53.140;6.498;2023-03-22T07:01:17;10.00;99.90
52879;DHT22;38747;53.140;6.498;2023-03-22T07:03:43;10.00;99.90
52879;DHT22;38747;53.140;6.498;2023-03-22T07:06:09;10.10;99.90
52879;DHT22;38747;53.140;6.498;2023-03-22T07:08:34;10.20;99.90
52879;DHT22;38747;53.140;6.498;2023-03-22T07:11:02;10.30;99.90
52879;DHT22;38747;53.140;6.498;2023-03-22T07:13:28;10.40;99.90
52879;DHT22;38747;53.140;6.498;2023-03-22T07:15:55;10.50;99.90
52879;DHT22;38747;53.140;6.498;2023-03-22T07:18:21;10.50;99.90
52879;DHT22;38747;53.140;6.498;2023-03-22T07:20:46;10.50;99.90
52879;DHT22;38747;53.140;6.498;2023-03-22T07:23:12;10.50;99.90
52879;DHT22;38747;53.140;6.498;2023-03-22T07:25:40;10.50;99.90
52879;DHT22;38747;53.140;6.498;2023-03-22T07:28:05;10.50;99.90
52879;DHT22;38747;53.140;6.498;2023-03-22T07:30:32;10.50;99.90
52879;DHT22;38747;53.140;6.498;2023-03-22T07:33:00;10.50;99.90
52879;DHT22;38747;53.140;6.498;2023-03-22T07:35:26;10.50;99.90
52879;DHT22;38747;53.140;6.498;2023-03-22T07:37:51;10.50;99.90
52879;DHT22;38747;53.140;6.498;2023-03-22T07:40:18;10.50;99.90
52879;DHT22;38747;53.140;6.498;2023-03-22T07:42:46;10.50;99.90
52879;DHT22;38747;53.140;6.498;2023-03-22T07:45:11;10.50;99.90
52879;DHT22;38747;53.140;6.498;2023-03-22T07:47:37;10.50;99.90
52879;DHT22;38747;53.140;6.498;2023-03-22T07:50:03;10.50;99.90
52879;DHT22;38747;53.140;6.498;2023-03-22T07:52:29;10.50;99.90
52879;DHT22;38747;53.140;6.498;2023-03-22T07:54:54;10.50;99.90
52879;DHT22;38747;53.140;6.498;2023-03-22T07:57:20;10.50;99.90
52879;DHT22;38747;53.140;6.498;2023-03-22T07:59:46;10.60;99.90
52879;DHT22;38747;53.140;6.498;2023-03-22T08:02:11;10.60;99.90
52879;DHT22;38747;53.140;6.498;2023-03-22T08:04:37;10.70;99.90
52879;DHT22;38747;53.140;6.498;2023-03-22T08:07:02;10.80;99.90
52879;DHT22;38747;53.140;6.498;2023-03-22T08:09:31;10.90;99.90
52879;DHT22;38747;53.140;6.498;2023-03-22T08:11:57;11.10;99.90
52879;DHT22;38747;53.140;6.498;2023-03-22T08:14:23;11.10;99.90
52879;DHT22;38747;53.140;6.498;2023-03-22T08:16:48;11.10;99.90
52879;DHT22;38747;53.140;6.498;2023-03-22T08:19:14;11.10;99.90
52879;DHT22;38747;53.140;6.498;2023-03-22T08:21:40;11.10;99.90
52879;DHT22;38747;53.140;6.498;2023-03-22T08:24:06;11.00;99.90
52879;DHT22;38747;53.140;6.498;2023-03-22T08:26:31;11.00;99.90
52879;DHT22;38747;53.140;6.498;2023-03-22T08:28:57;11.00;99.90
52879;DHT22;38747;53.140;6.498;2023-03-22T08:31:24;11.10;99.90
52879;DHT22;38747;53.140;6.498;2023-03-22T08:33:50;11.10;99.90
52879;DHT22;38747;53.140;6.498;2023-03-22T08:36:18;11.10;99.90
52879;DHT22;38747;53.140;6.498;2023-03-22T08:38:44;11.10;99.90
52879;DHT22;38747;53.140;6.498;2023-03-22T08:41:11;11.20;99.90
52879;DHT22;38747;53.140;6.498;2023-03-22T08:43:37;11.20;99.90
52879;DHT22;38747;53.140;6.498;2023-03-22T08:46:02;11.20;99.90
52879;DHT22;38747;53.140;6.498;2023-03-22T08:48:28;11.20;99.90
52879;DHT22;38747;53.140;6.498;2023-03-22T08:50:55;11.30;99.90
52879;DHT22;38747;53.140;6.498;2023-03-22T08:53:21;11.40;99.90
52879;DHT22;38747;53.140;6.498;2023-03-22T08:55:47;11.40;99.90
52879;DHT22;38747;53.140;6.498;2023-03-22T08:58:13;11.50;99.90
52879;DHT22;38747;53.140;6.498;2023-03-22T09:00:40;11.50;99.90
52879;DHT22;38747;53.140;6.498;2023-03-22T09:03:08;11.60;99.90
52879;DHT22;38747;53.140;6.498;2023-03-22T09:05:33;11.70;99.90
52879;DHT22;38747;53.140;6.498;2023-03-22T09:07:59;11.70;99.90
52879;DHT22;38747;53.140;6.498;2023-03-22T09:10:27;11.70;99.90
52879;DHT22;38747;53.140;6.498;2023-03-22T09:12:52;11.70;99.90
52879;DHT22;38747;53.140;6.498;2023-03-22T09:15:18;11.60;99.90
52879;DHT22;38747;53.140;6.498;2023-03-22T09:17:44;11.50;99.90
52879;DHT22;38747;53.140;6.498;2023-03-22T09:20:09;11.50;99.90
52879;DHT22;38747;53.140;6.498;2023-03-22T09:22:35;11.50;99.90
52879;DHT22;38747;53.140;6.498;2023-03-22T09:25:02;11.40;99.90
52879;DHT22;38747;53.140;6.498;2023-03-22T09:27:27;11.40;99.90
52879;DHT22;38747;53.140;6.498;2023-03-22T09:29:53;11.40;99.90
52879;DHT22;38747;53.140;6.498;2023-03-22T09:32:19;11.50;99.90
52879;DHT22;38747;53.140;6.498;2023-03-22T09:34:44;11.50;99.90
52879;DHT22;38747;53.140;6.498;2023-03-22T09:37:10;11.60;99.90
52879;DHT22;38747;53.140;6.498;2023-03-22T09:39:38;11.60;99.90
52879;DHT22;38747;53.140;6.498;2023-03-22T09:42:19;11.50;99.90
52879;DHT22;38747;53.140;6.498;2023-03-22T09:44:47;11.50;99.90
52879;DHT22;38747;53.140;6.498;2023-03-22T09:47:18;11.60;99.90
52879;DHT22;38747;53.140;6.498;2023-03-22T09:49:48;11.50;99.90
52879;DHT22;38747;53.140;6.498;2023-03-22T09:52:15;11.50;99.90
52879;DHT22;38747;53.140;6.498;2023-03-22T09:54:45;11.40;99.90
52879;DHT22;38747;53.140;6.498;2023-03-22T09:57:30;11.40;99.90
52879;DHT22;38747;53.140;6.498;2023-03-22T10:10:30;11.10;99.90
52879;DHT22;38747;53.140;6.498;2023-03-22T10:15:40;10.90;99.90
52879;DHT22;38747;53.140;6.498;2023-03-22T10:18:12;10.90;99.90
52879;DHT22;38747;53.140;6.498;2023-03-22T10:21:03;10.80;99.90
52879;DHT22;38747;53.140;6.498;2023-03-22T10:26:05;10.80;99.90
52879;DHT22;38747;53.140;6.498;2023-03-22T10:28:40;10.70;99.90
52879;DHT22;38747;53.140;6.498;2023-03-22T10:31:14;10.70;99.90
52879;DHT22;38747;53.140;6.498;2023-03-22T10:33:44;10.70;99.90
52879;DHT22;38747;53.140;6.498;2023-03-22T10:36:20;10.60;99.90
52879;DHT22;38747;53.140;6.498;2023-03-22T10:38:51;10.60;99.90
52879;DHT22;38747;53.140;6.498;2023-03-22T10:41:19;10.50;99.90
52879;DHT22;38747;53.140;6.498;2023-03-22T10:43:52;10.50;99.90
52879;DHT22;38747;53.140;6.498;2023-03-22T10:46:20;10.50;99.90
52879;DHT22;38747;53.140;6.498;2023-03-22T10:48:49;10.50;99.90
52879;DHT22;38747;53.140;6.498;2023-03-22T10:51:28;10.50;99.90
52879;DHT22;38747;53.140;6.498;2023-03-22T10:53:55;10.50;99.90
52879;DHT22;38747;53.140;6.498;2023-03-22T10:56:23;10.40;99.90
52879;DHT22;38747;53.140;6.498;2023-03-22T10:58:49;10.40;99.90
52879;DHT22;38747;53.140;6.498;2023-03-22T11:01:30;10.40;99.90
52879;DHT22;38747;53.140;6.498;2023-03-22T11:04:15;10.40;99.90
52879;DHT22;38747;53.140;6.498;2023-03-22T11:06:49;10.50;99.90
52879;DHT22;38747;53.140;6.498;2023-03-22T11:11:51;10.40;99.90
52879;DHT22;38747;53.140;6.498;2023-03-22T11:14:35;10.40;99.90
52879;DHT22;38747;53.140;6.498;2023-03-22T11:17:11;10.50;99.90
52879;DHT22;38747;53.140;6.498;2023-03-22T11:19:57;10.50;99.90
52879;DHT22;38747;53.140;6.498;2023-03-22T11:22:32;10.50;99.90
52879;DHT22;38747;53.140;6.498;2023-03-22T11:24:59;10.50;99.90
52879;DHT22;38747;53.140;6.498;2023-03-22T11:27:27;10.50;99.90
52879;DHT22;38747;53.140;6.498;2023-03-22T11:29:58;10.50;99.90
52879;DHT22;38747;53.140;6.498;2023-03-22T11:37:28;10.60;99.90
52879;DHT22;38747;53.140;6.498;2023-03-22T11:40:01;10.60;99.90
52879;DHT22;38747;53.140;6.498;2023-03-22T11:42:31;10.50;99.90
52879;DHT22;38747;53.140;6.498;2023-03-22T11:44:58;10.60;99.90
52879;DHT22;38747;53.140;6.498;2023-03-22T11:47:25;10.60;99.90
52879;DHT22;38747;53.140;6.498;2023-03-22T11:49:52;10.60;99.90
52879;DHT22;38747;53.140;6.498;2023-03-22T11:52:25;10.70;99.90
52879;DHT22;38747;53.140;6.498;2023-03-22T11:54:52;10.70;99.90
52879;DHT22;38747;53.140;6.498;2023-03-22T11:57:27;10.60;99.90
52879;DHT22;38747;53.140;6.498;2023-03-22T12:00:03;10.70;99.90
52879;DHT22;38747;53.140;6.498;2023-03-22T12:03:05;10.70;99.90
52879;DHT22;38747;53.140;6.498;2023-03-22T12:05:37;10.70;99.90
52879;DHT22;38747;53.140;6.498;2023-03-22T12:10:48;10.80;99.90
52879;DHT22;38747;53.140;6.498;2023-03-22T12:13:38;10.70;99.90
52879;DHT22;38747;53.140;6.498;2023-03-22T12:16:12;10.70;99.90
52879;DHT22;38747;53.140;6.498;2023-03-22T12:21:22;10.70;99.90
52879;DHT22;38747;53.140;6.498;2023-03-22T12:23:47;10.70;99.90
52879;DHT22;38747;53.140;6.498;2023-03-22T12:26:20;10.70;99.90
52879;DHT22;38747;53.140;6.498;2023-03-22T12:29:06;10.70;99.90
52879;DHT22;38747;53.140;6.498;2023-03-22T12:31:42;10.70;99.90
52879;DHT22;38747;53.140;6.498;2023-03-22T12:34:20;10.70;99.90
52879;DHT22;38747;53.140;6.498;2023-03-22T12:36:54;10.70;99.90
52879;DHT22;38747;53.140;6.498;2023-03-22T12:39:30;10.70;99.90
52879;DHT22;38747;53.140;6.498;2023-03-22T12:42:03;10.70;99.90
52879;DHT22;38747;53.140;6.498;2023-03-22T12:44:41;10.60;99.90
52879;DHT22;38747;53.140;6.498;2023-03-22T12:47:15;10.60;99.90
52879;DHT22;38747;53.140;6.498;2023-03-22T12:49:54;10.50;99.90
52879;DHT22;38747;53.140;6.498;2023-03-22T12:52:29;10.60;99.90
52879;DHT22;38747;53.140;6.498;2023-03-22T12:54:57;10.50;99.90
52879;DHT22;38747;53.140;6.498;2023-03-22T12:57:24;10.50;99.90
52879;DHT22;38747;53.140;6.498;2023-03-22T12:59:53;10.50;99.90
52879;DHT22;38747;53.140;6.498;2023-03-22T13:02:27;10.50;99.90
52879;DHT22;38747;53.140;6.498;2023-03-22T13:04:56;10.50;99.90
52879;DHT22;38747;53.140;6.498;2023-03-22T13:07:36;10.50;99.90
52879;DHT22;38747;53.140;6.498;2023-03-22T13:15:34;10.50;99.90
52879;DHT22;38747;53.140;6.498;2023-03-22T13:18:02;10.50;99.90
52879;DHT22;38747;53.140;6.498;2023-03-22T13:20:31;10.50;99.90
52879;DHT22;38747;53.140;6.498;2023-03-22T13:23:01;10.50;99.90
52879;DHT22;38747;53.140;6.498;2023-03-22T13:25:30;10.50;99.90
52879;DHT22;38747;53.140;6.498;2023-03-22T13:28:00;10.50;99.90
52879;DHT22;38747;53.140;6.498;2023-03-22T13:30:47;10.50;99.90
52879;DHT22;38747;53.140;6.498;2023-03-22T13:33:24;10.40;99.90
52879;DHT22;38747;53.140;6.498;2023-03-22T13:38:29;10.40;99.90
52879;DHT22;38747;53.140;6.498;2023-03-22T13:43:34;10.40;99.90
52879;DHT22;38747;53.140;6.498;2023-03-22T13:46:11;10.40;99.90
52879;DHT22;38747;53.140;6.498;2023-03-22T13:51:28;10.40;99.90
52879;DHT22;38747;53.140;6.498;2023-03-22T13:54:01;10.40;99.90
52879;DHT22;38747;53.140;6.498;2023-03-22T13:59:02;10.30;99.90
52879;DHT22;38747;53.140;6.498;2023-03-22T14:07:23;10.30;99.90
52879;DHT22;38747;53.140;6.498;2023-03-22T14:10:03;10.30;99.90
52879;DHT22;38747;53.140;6.498;2023-03-22T14:15:24;10.30;99.90
52879;DHT22;38747;53.140;6.498;2023-03-22T14:17:56;10.30;99.90
52879;DHT22;38747;53.140;6.498;2023-03-22T14:20:25;10.30;99.90
52879;DHT22;38747;53.140;6.498;2023-03-22T14:22:58;10.20;99.90
52879;DHT22;38747;53.140;6.498;2023-03-22T14:25:26;10.20;99.90
52879;DHT22;38747;53.140;6.498;2023-03-22T14:27:53;10.30;99.90
52879;DHT22;38747;53.140;6.498;2023-03-22T14:33:00;10.30;99.90
52879;DHT22;38747;53.140;6.498;2023-03-22T14:35:40;10.30;99.90
52879;DHT22;38747;53.140;6.498;2023-03-22T14:38:20;10.30;99.90
52879;DHT22;38747;53.140;6.498;2023-03-22T14:40:46;10.30;99.90
52879;DHT22;38747;53.140;6.498;2023-03-22T14:45:37;10.30;99.90
52879;DHT22;38747;53.140;6.498;2023-03-22T14:48:18;10.40;99.90
52879;DHT22;38747;53.140;6.498;2023-03-22T14:50:51;10.40;99.90
52879;DHT22;38747;53.140;6.498;2023-03-22T14:53:20;10.40;99.90
52879;DHT22;38747;53.140;6.498;2023-03-22T14:55:48;10.40;99.90
52879;DHT22;38747;53.140;6.498;2023-03-22T14:58:16;10.50;99.90
52879;DHT22;38747;53.140;6.498;2023-03-22T15:00:42;10.40;99.90
52879;DHT22;38747;53.140;6.498;2023-03-22T15:03:13;10.40;99.90
52879;DHT22;38747;53.140;6.498;2023-03-22T15:05:44;10.40;99.90
52879;DHT22;38747;53.140;6.498;2023-03-22T15:08:20;10.40;99.90
52879;DHT22;38747;53.140;6.498;2023-03-22T15:10:58;10.40;99.90
52879;DHT22;38747;53.140;6.498;2023-03-22T15:13:28;10.40;99.90
52879;DHT22;38747;53.140;6.498;2023-03-22T15:15:57;10.40;99.90
52879;DHT22;38747;53.140;6.498;2023-03-22T15:18:25;10.40;99.90
52879;DHT22;38747;53.140;6.498;2023-03-22T15:20:53;10.50;99.90
52879;DHT22;38747;53.140;6.498;2023-03-22T15:23:34;10.50;99.90
52879;DHT22;38747;53.140;6.498;2023-03-22T15:26:11;10.40;99.90
52879;DHT22;38747;53.140;6.498;2023-03-22T15:29:04;10.40;99.90
52879;DHT22;38747;53.140;6.498;2023-03-22T15:31:31;10.50;99.90
52879;DHT22;38747;53.140;6.498;2023-03-22T15:34:02;10.40;99.90
52879;DHT22;38747;53.140;6.498;2023-03-22T15:36:32;10.40;99.90
52879;DHT22;38747;53.140;6.498;2023-03-22T15:39:01;10.40;99.90
52879;DHT22;38747;53.140;6.498;2023-03-22T15:41:39;10.40;99.90
52879;DHT22;38747;53.140;6.498;2023-03-22T15:44:26;10.40;99.90
52879;DHT22;38747;53.140;6.498;2023-03-22T15:52:06;10.50;99.90
52879;DHT22;38747;53.140;6.498;2023-03-22T15:54:34;10.50;99.90
52879;DHT22;38747;53.140;6.498;2023-03-22T15:57:09;10.50;99.90
52879;DHT22;38747;53.140;6.498;2023-03-22T16:00:08;10.50;99.90
52879;DHT22;38747;53.140;6.498;2023-03-22T16:05:18;10.50;99.90
52879;DHT22;38747;53.140;6.498;2023-03-22T16:07:44;10.50;99.90
52879;DHT22;38747;53.140;6.498;2023-03-22T16:10:15;10.50;99.90
52879;DHT22;38747;53.140;6.498;2023-03-22T16:12:40;10.60;99.90
52879;DHT22;38747;53.140;6.498;2023-03-22T16:15:17;10.60;99.90
52879;DHT22;38747;53.140;6.498;2023-03-22T16:17:43;10.50;99.90
52879;DHT22;38747;53.140;6.498;2023-03-22T16:20:10;10.60;99.90
52879;DHT22;38747;53.140;6.498;2023-03-22T16:22:37;10.60;99.90
52879;DHT22;38747;53.140;6.498;2023-03-22T16:25:02;10.60;99.90
52879;DHT22;38747;53.140;6.498;2023-03-22T16:27:28;10.50;99.90
52879;DHT22;38747;53.140;6.498;2023-03-22T16:29:54;10.60;99.90
52879;DHT22;38747;53.140;6.498;2023-03-22T16:32:23;10.60;99.90
52879;DHT22;38747;53.140;6.498;2023-03-22T16:34:49;10.60;99.90
52879;DHT22;38747;53.140;6.498;2023-03-22T16:37:23;10.50;99.90
52879;DHT22;38747;53.140;6.498;2023-03-22T16:39:50;10.50;99.90
52879;DHT22;38747;53.140;6.498;2023-03-22T16:42:18;10.60;99.90
52879;DHT22;38747;53.140;6.498;2023-03-22T16:44:45;10.60;99.90
52879;DHT22;38747;53.140;6.498;2023-03-22T16:47:14;10.50;99.90
52879;DHT22;38747;53.140;6.498;2023-03-22T16:49:40;10.60;99.90
52879;DHT22;38747;53.140;6.498;2023-03-22T16:52:06;10.50;99.90
52879;DHT22;38747;53.140;6.498;2023-03-22T16:54:32;10.50;99.90
52879;DHT22;38747;53.140;6.498;2023-03-22T16:56:58;10.50;99.90
52879;DHT22;38747;53.140;6.498;2023-03-22T16:59:24;10.50;99.90
52879;DHT22;38747;53.140;6.498;2023-03-22T17:01:50;10.50;99.90
52879;DHT22;38747;53.140;6.498;2023-03-22T17:04:16;10.50;99.90
52879;DHT22;38747;53.140;6.498;2023-03-22T17:06:42;10.40;99.90
52879;DHT22;38747;53.140;6.498;2023-03-22T17:09:07;10.50;99.90
52879;DHT22;38747;53.140;6.498;2023-03-22T17:11:33;10.50;99.90
52879;DHT22;38747;53.140;6.498;2023-03-22T17:13:58;10.40;99.90
52879;DHT22;38747;53.140;6.498;2023-03-22T17:16:27;10.50;99.90
52879;DHT22;38747;53.140;6.498;2023-03-22T17:18:52;10.40;99.90
52879;DHT22;38747;53.140;6.498;2023-03-22T17:21:21;10.40;99.90
52879;DHT22;38747;53.140;6.498;2023-03-22T17:23:47;10.40;99.90